Time;durP1;ratioP1;P1;durP2;ratioP2;P2;SDS_P1;SDS_P2;PMS_P1;PMS_P2;Temp;Humidity;BMP_temperature;BMP_pressure;BME280_temperature;BME280_humidity;BME280_pressure;Samples;Min_cycle;Max_cycle;Signal;HPM_P1;HPM_P2
2022/10/25 00:00:38;;;;;;;7.03;2.10;;;13.90;99.90;;;;;;5031030;28;20025;-64
2022/10/25 00:03:07;;;;;;;7.50;2.37;;;13.90;99.90;;;;;;5032429;28;20017;-64
2022/10/25 00:05:33;;;;;;;7.28;2.20;;;13.90;99.90;;;;;;5046170;28;20518;-64
2022/10/25 00:07:59;;;;;;;5.40;1.83;;;13.90;99.90;;;;;;5033295;28;20272;-63
2022/10/25 00:10:25;;;;;;;6.63;2.45;;;13.90;99.90;;;;;;5033453;28;20018;-64
2022/10/25 00:12:50;;;;;;;8.68;2.65;;;14.00;99.90;;;;;;5033026;28;20025;-64
2022/10/25 00:15:16;;;;;;;6.22;2.33;;;14.00;99.90;;;;;;5047348;28;20113;-64
2022/10/25 00:17:42;;;;;;;4.80;2.25;;;14.00;99.90;;;;;;5031031;28;20428;-63
2022/10/25 00:20:10;;;;;;;11.32;2.58;;;14.00;99.90;;;;;;5033416;28;20390;-63
2022/10/25 00:22:35;;;;;;;8.10;3.53;;;14.10;99.90;;;;;;5033245;28;20029;-63
2022/10/25 00:25:01;;;;;;;9.38;2.78;;;14.10;99.90;;;;;;5033134;28;20028;-63
2022/10/25 00:27:26;;;;;;;6.10;2.70;;;14.20;99.90;;;;;;5031129;28;20555;-63
2022/10/25 00:29:53;;;;;;;6.18;2.78;;;14.20;99.90;;;;;;5030117;28;20029;-64
2022/10/25 00:32:19;;;;;;;5.65;2.13;;;14.20;99.90;;;;;;5034633;28;20017;-63
2022/10/25 00:34:44;;;;;;;6.53;2.28;;;14.20;99.90;;;;;;5030623;28;20100;-64
2022/10/25 00:37:10;;;;;;;8.02;2.25;;;14.20;99.90;;;;;;5033019;28;20100;-64
2022/10/25 00:39:37;;;;;;;6.60;2.58;;;14.20;99.90;;;;;;5033130;28;20044;-63
2022/10/25 00:42:03;;;;;;;6.38;2.53;;;14.30;99.90;;;;;;5032859;28;20026;-64
2022/10/25 00:44:37;;;;;;;6.38;2.90;;;14.30;99.90;;;;;;5042928;28;20049;-63
2022/10/25 00:47:24;;;;;;;6.15;2.45;;;14.30;99.90;;;;;;5045671;28;20042;-64
2022/10/25 00:50:11;;;;;;;12.75;3.95;;;14.30;99.90;;;;;;5032710;28;20028;-64
2022/10/25 00:52:40;;;;;;;10.75;3.47;;;14.30;99.90;;;;;;5030353;28;20079;-64
2022/10/25 00:55:07;;;;;;;9.65;3.45;;;14.30;99.90;;;;;;5032834;28;20072;-64
2022/10/25 00:57:41;;;;;;;7.93;3.60;;;14.30;99.90;;;;;;5032411;28;20034;-64
2022/10/25 01:00:09;;;;;;;10.05;3.28;;;14.40;99.90;;;;;;5030619;28;20052;-64
2022/10/25 01:02:34;;;;;;;8.43;2.75;;;14.40;99.90;;;;;;5032316;28;20486;-64
2022/10/25 01:05:00;;;;;;;4.82;2.10;;;14.40;99.90;;;;;;5032511;28;20064;-63
2022/10/25 01:07:26;;;;;;;6.00;2.30;;;14.40;99.90;;;;;;5032536;28;20474;-64
2022/10/25 01:09:52;;;;;;;10.45;3.03;;;14.40;99.90;;;;;;5032429;28;20032;-64
2022/10/25 01:12:18;;;;;;;8.60;2.15;;;14.40;99.90;;;;;;5032137;28;20025;-64
2022/10/25 01:14:47;;;;;;;6.00;1.98;;;14.40;99.90;;;;;;5032060;28;20014;-64
2022/10/25 01:17:25;;;;;;;6.75;2.40;;;14.40;99.90;;;;;;5032215;28;20018;-64
2022/10/25 01:20:03;;;;;;;7.40;2.05;;;14.40;99.90;;;;;;5032542;28;20437;-64
2022/10/25 01:22:52;;;;;;;10.32;2.35;;;14.40;99.90;;;;;;5030567;28;20033;-64
2022/10/25 01:25:45;;;;;;;10.45;3.40;;;14.30;99.90;;;;;;5032031;28;20033;-64
2022/10/25 01:28:22;;;;;;;8.27;2.00;;;14.30;99.90;;;;;;5031883;28;20105;-64
2022/10/25 01:30:59;;;;;;;6.72;1.88;;;14.30;99.90;;;;;;5030118;28;20104;-64
2022/10/25 01:33:30;;;;;;;8.52;2.42;;;14.30;99.90;;;;;;5031856;28;20021;-64
2022/10/25 01:35:58;;;;;;;11.27;2.53;;;14.30;99.90;;;;;;5032125;28;20104;-64
2022/10/25 01:38:57;;;;;;;8.02;1.90;;;14.30;99.90;;;;;;5031870;28;20029;-64
2022/10/25 01:41:26;;;;;;;13.77;3.40;;;14.30;99.90;;;;;;5029350;28;20041;-64
2022/10/25 01:44:13;;;;;;;9.40;2.42;;;14.20;99.90;;;;;;5031617;28;20021;-63
2022/10/25 01:46:53;;;;;;;13.73;3.05;;;14.30;99.90;;;;;;5031280;28;20493;-64
2022/10/25 01:49:46;;;;;;;12.10;2.90;;;14.30;99.90;;;;;;5031482;28;20497;-64
2022/10/25 01:52:13;;;;;;;6.22;2.65;;;14.30;99.90;;;;;;5031922;28;20092;-64
2022/10/25 01:54:38;;;;;;;9.60;2.67;;;14.30;99.90;;;;;;5031629;28;20482;-64
2022/10/25 01:57:37;;;;;;;9.93;3.00;;;14.30;99.90;;;;;;5031677;28;20092;-64
2022/10/25 02:00:08;;;;;;;8.30;2.72;;;14.40;99.90;;;;;;5028810;28;20362;-64
2022/10/25 02:02:52;;;;;;;10.75;3.03;;;14.40;99.90;;;;;;5030696;28;20036;-64
2022/10/25 02:05:37;;;;;;;10.18;2.92;;;14.40;99.90;;;;;;5031486;28;20025;-64
2022/10/25 02:08:11;;;;;;;8.70;2.72;;;14.40;99.90;;;;;;5031035;28;20084;-64
2022/10/25 02:10:42;;;;;;;8.55;2.90;;;14.40;99.90;;;;;;5031333;28;20462;-64
2022/10/25 02:13:20;;;;;;;12.90;3.63;;;14.50;99.90;;;;;;5031658;28;20021;-64
2022/10/25 02:15:53;;;;;;;9.93;4.05;;;14.50;99.90;;;;;;5030591;28;20489;-64
2022/10/25 02:18:23;;;;;;;13.52;4.80;;;14.50;99.90;;;;;;5032581;28;20515;-64
2022/10/25 02:20:50;;;;;;;11.15;4.20;;;14.50;99.90;;;;;;5031016;28;20017;-64
2022/10/25 02:23:19;;;;;;;10.23;4.00;;;14.60;99.90;;;;;;5031426;28;20389;-64
2022/10/25 02:25:46;;;;;;;12.48;4.25;;;14.60;99.90;;;;;;5028606;28;20072;-64
2022/10/25 02:28:14;;;;;;;11.15;4.20;;;14.60;99.90;;;;;;5031096;28;20025;-64
2022/10/25 02:30:42;;;;;;;10.32;3.80;;;14.60;99.90;;;;;;5030885;28;20017;-64
2022/10/25 02:33:09;;;;;;;12.27;3.95;;;14.70;99.90;;;;;;5030870;28;20022;-64
2022/10/25 02:35:34;;;;;;;7.07;3.92;;;14.70;99.90;;;;;;5031026;28;20030;-64
2022/10/25 02:38:00;;;;;;;10.15;4.20;;;14.70;99.90;;;;;;5031033;28;20028;-64
2022/10/25 02:40:26;;;;;;;17.50;5.03;;;14.70;99.90;;;;;;5030852;28;20074;-64
2022/10/25 02:42:52;;;;;;;17.25;4.70;;;14.70;99.90;;;;;;5031169;28;20037;-64
2022/10/25 02:45:17;;;;;;;15.45;4.25;;;14.70;99.90;;;;;;5030806;28;20152;-64
2022/10/25 02:47:43;;;;;;;6.82;3.70;;;14.70;99.90;;;;;;5030889;28;20029;-64
2022/10/25 02:50:09;;;;;;;9.75;3.70;;;14.70;99.90;;;;;;5029869;28;20021;-64
2022/10/25 02:52:34;;;;;;;10.20;3.70;;;14.70;99.90;;;;;;5030664;28;20025;-64
2022/10/25 02:55:00;;;;;;;11.38;3.95;;;14.70;99.90;;;;;;5030896;28;20021;-64
2022/10/25 02:57:30;;;;;;;10.52;4.20;;;14.70;99.90;;;;;;5030886;28;20048;-64
2022/10/25 02:59:56;;;;;;;10.80;4.22;;;14.70;99.90;;;;;;5030970;28;20417;-64
2022/10/25 03:02:21;;;;;;;8.57;3.85;;;14.70;99.90;;;;;;5030462;28;20531;-64
2022/10/25 03:04:47;;;;;;;10.77;4.57;;;14.70;99.90;;;;;;5030963;28;20025;-64
2022/10/25 03:07:12;;;;;;;10.30;4.70;;;14.70;99.90;;;;;;5030812;28;20089;-64
2022/10/25 03:09:38;;;;;;;11.00;4.28;;;14.70;99.90;;;;;;5030806;28;20032;-64
2022/10/25 03:12:03;;;;;;;12.15;4.45;;;14.70;99.90;;;;;;5029087;28;20052;-64
2022/10/25 03:14:29;;;;;;;11.55;5.00;;;14.70;99.90;;;;;;5033181;28;20029;-64
2022/10/25 03:16:54;;;;;;;10.95;3.97;;;14.70;99.90;;;;;;5034445;28;20083;-63
2022/10/25 03:19:20;;;;;;;7.50;3.80;;;14.70;99.90;;;;;;5034506;28;20333;-64
2022/10/25 03:21:45;;;;;;;7.70;3.17;;;14.70;99.90;;;;;;5033586;28;20022;-64
2022/10/25 03:24:11;;;;;;;10.02;3.25;;;14.70;99.90;;;;;;5034797;28;20552;-64
2022/10/25 03:26:36;;;;;;;6.88;3.20;;;14.70;99.90;;;;;;5034270;28;20038;-63
2022/10/25 03:29:02;;;;;;;12.50;4.30;;;14.70;99.90;;;;;;5019553;28;20036;-64
2022/10/25 03:31:27;;;;;;;12.73;3.92;;;14.70;99.90;;;;;;5034029;28;20065;-64
2022/10/25 03:33:53;;;;;;;9.98;3.30;;;14.70;99.90;;;;;;5034708;28;20049;-64
2022/10/25 03:36:18;;;;;;;11.98;3.95;;;14.70;99.90;;;;;;5034407;28;20064;-64
2022/10/25 03:38:44;;;;;;;10.70;3.60;;;14.70;99.90;;;;;;5032061;28;20351;-64
2022/10/25 03:41:10;;;;;;;7.80;2.78;;;14.70;99.90;;;;;;5033328;28;20411;-64
2022/10/25 03:43:35;;;;;;;5.90;2.83;;;14.70;99.90;;;;;;5034481;28;20526;-64
2022/10/25 03:46:01;;;;;;;8.57;3.22;;;14.70;99.90;;;;;;5033703;28;20049;-64
2022/10/25 03:48:26;;;;;;;6.40;2.53;;;14.60;99.90;;;;;;5033991;28;20068;-64
2022/10/25 03:50:53;;;;;;;8.35;2.38;;;14.70;99.90;;;;;;5045420;28;20038;-64
2022/10/25 03:53:19;;;;;;;7.93;2.90;;;14.70;99.90;;;;;;5033909;28;20048;-64
2022/10/25 03:55:44;;;;;;;8.20;2.78;;;14.60;99.90;;;;;;5034001;28;20469;-63
2022/10/25 03:58:10;;;;;;;5.82;1.90;;;14.60;99.90;;;;;;5034052;28;20025;-64
2022/10/25 04:00:36;;;;;;;12.60;4.20;;;14.60;99.90;;;;;;5033720;28;20029;-64
2022/10/25 04:03:02;;;;;;;8.10;2.75;;;14.60;99.90;;;;;;5033416;28;20040;-64
2022/10/25 04:05:29;;;;;;;7.75;3.63;;;14.60;99.90;;;;;;5034033;28;20036;-63
2022/10/25 04:07:54;;;;;;;9.40;3.42;;;14.60;99.90;;;;;;5029230;28;20033;-63
2022/10/25 04:10:20;;;;;;;9.13;3.58;;;14.60;99.90;;;;;;5021564;28;20453;-64
2022/10/25 04:12:46;;;;;;;8.43;3.10;;;14.50;99.90;;;;;;5044093;28;20084;-64
2022/10/25 04:15:12;;;;;;;11.05;3.80;;;14.50;99.90;;;;;;5028443;28;20022;-64
2022/10/25 04:17:38;;;;;;;8.00;3.03;;;14.60;99.90;;;;;;5026607;28;20063;-64
2022/10/25 04:20:04;;;;;;;8.80;3.25;;;14.50;99.90;;;;;;5031097;28;20061;-64
2022/10/25 04:22:29;;;;;;;7.38;2.80;;;14.50;99.90;;;;;;5028491;28;20064;-64
2022/10/25 04:24:55;;;;;;;8.68;3.28;;;14.40;99.90;;;;;;5026683;28;20041;-64
2022/10/25 04:27:20;;;;;;;7.13;3.50;;;14.40;99.90;;;;;;5025349;28;20018;-64
2022/10/25 04:29:46;;;;;;;9.43;3.10;;;14.40;99.90;;;;;;5042461;28;20017;-64
2022/10/25 04:32:11;;;;;;;8.60;3.08;;;14.40;99.90;;;;;;5028108;28;20021;-64
2022/10/25 04:34:37;;;;;;;7.47;2.80;;;14.40;99.90;;;;;;5021092;28;20067;-64
2022/10/25 04:37:03;;;;;;;5.05;2.72;;;14.40;99.90;;;;;;5026142;28;20021;-64
2022/10/25 04:39:28;;;;;;;5.57;2.60;;;14.30;99.90;;;;;;5020926;28;20394;-64
2022/10/25 04:41:54;;;;;;;8.85;2.70;;;14.30;99.90;;;;;;5026712;28;20028;-64
2022/10/25 04:44:19;;;;;;;7.07;2.90;;;14.30;99.90;;;;;;5032525;28;20054;-64
2022/10/25 04:46:45;;;;;;;6.90;3.80;;;14.30;99.90;;;;;;5020813;28;20041;-64
2022/10/25 04:49:12;;;;;;;3.50;2.10;;;14.30;99.90;;;;;;5027498;28;20029;-64
2022/10/25 04:51:38;;;;;;;10.32;2.75;;;14.30;99.90;;;;;;5023041;28;20456;-64
2022/10/25 04:54:04;;;;;;;7.05;1.98;;;14.30;99.90;;;;;;5027691;28;20022;-64
2022/10/25 04:56:29;;;;;;;8.60;2.17;;;14.30;99.90;;;;;;5022699;28;20136;-64
2022/10/25 04:58:57;;;;;;;4.93;1.90;;;14.20;99.90;;;;;;5025185;28;20039;-64
2022/10/25 05:01:22;;;;;;;6.45;2.03;;;14.20;99.90;;;;;;5026256;28;20474;-64
2022/10/25 05:03:48;;;;;;;6.30;2.03;;;14.10;99.90;;;;;;5025015;28;20030;-63
2022/10/25 05:06:15;;;;;;;6.35;1.80;;;14.10;99.90;;;;;;5027318;28;20048;-64
2022/10/25 05:08:43;;;;;;;7.07;2.05;;;14.10;99.90;;;;;;5018581;28;20029;-64
2022/10/25 05:11:10;;;;;;;6.25;1.55;;;14.10;99.90;;;;;;5027359;28;20381;-64
2022/10/25 05:13:38;;;;;;;5.93;1.52;;;14.00;99.90;;;;;;5024641;28;20409;-64
2022/10/25 05:16:04;;;;;;;4.18;1.50;;;14.00;99.90;;;;;;5021498;28;20021;-64
2022/10/25 05:18:31;;;;;;;5.78;2.00;;;14.00;99.90;;;;;;5025722;28;20379;-64
2022/10/25 05:21:05;;;;;;;9.15;2.20;;;14.00;99.90;;;;;;5032039;28;20675;-64
2022/10/25 05:23:33;;;;;;;7.07;2.30;;;14.00;99.90;;;;;;5016431;28;20531;-64
2022/10/25 05:26:07;;;;;;;4.50;1.80;;;13.90;99.90;;;;;;5025771;28;20024;-64
2022/10/25 05:28:34;;;;;;;5.90;1.95;;;13.90;99.90;;;;;;5032396;28;20473;-63
2022/10/25 05:31:12;;;;;;;5.60;2.03;;;13.80;99.90;;;;;;5033350;28;20474;-64
2022/10/25 05:33:38;;;;;;;7.80;2.00;;;13.70;99.90;;;;;;5030034;28;20018;-64
2022/10/25 05:36:04;;;;;;;4.25;2.03;;;13.70;99.90;;;;;;5032875;28;20478;-64
2022/10/25 05:38:30;;;;;;;7.72;2.10;;;13.70;99.90;;;;;;5030273;28;20032;-64
2022/10/25 05:40:57;;;;;;;6.63;2.33;;;13.70;99.90;;;;;;5022184;28;20025;-63
2022/10/25 05:43:23;;;;;;;5.65;2.15;;;13.70;99.90;;;;;;5017038;28;20072;-64
2022/10/25 05:45:50;;;;;;;6.22;2.25;;;13.70;99.90;;;;;;5016828;28;20045;-64
2022/10/25 05:48:17;;;;;;;5.82;2.10;;;13.70;99.90;;;;;;5027576;28;20433;-63
2022/10/25 05:50:43;;;;;;;8.18;2.10;;;13.70;99.90;;;;;;5017326;28;20462;-64
2022/10/25 05:53:09;;;;;;;6.13;2.30;;;13.60;99.90;;;;;;5032180;28;20036;-64
2022/10/25 05:55:35;;;;;;;6.90;1.92;;;13.60;99.90;;;;;;5022402;28;20548;-64
2022/10/25 05:58:01;;;;;;;7.15;2.42;;;13.60;99.90;;;;;;5016020;28;20091;-64
2022/10/25 06:00:27;;;;;;;7.55;2.90;;;13.60;99.90;;;;;;5028909;28;20160;-64
2022/10/25 06:02:52;;;;;;;5.28;2.70;;;13.60;99.90;;;;;;5022364;28;20100;-64
2022/10/25 06:05:18;;;;;;;7.35;2.90;;;13.60;99.90;;;;;;5032572;28;20033;-64
2022/10/25 06:07:45;;;;;;;7.25;2.90;;;13.60;99.90;;;;;;5015194;28;20033;-64
2022/10/25 06:10:11;;;;;;;7.32;2.65;;;13.60;99.90;;;;;;5028127;28;20044;-64
2022/10/25 06:12:36;;;;;;;8.43;2.63;;;13.60;99.90;;;;;;5025650;28;20393;-64
2022/10/25 06:15:02;;;;;;;5.80;2.50;;;13.60;99.90;;;;;;5018370;28;20028;-64
2022/10/25 06:17:28;;;;;;;8.32;2.50;;;13.60;99.90;;;;;;5025513;28;20018;-64
2022/10/25 06:19:53;;;;;;;9.80;2.90;;;13.60;99.90;;;;;;5022891;28;20087;-64
2022/10/25 06:22:19;;;;;;;8.52;3.00;;;13.60;99.90;;;;;;5015398;28;20014;-64
2022/10/25 06:24:44;;;;;;;6.45;2.60;;;13.50;99.90;;;;;;5018385;28;20478;-64
2022/10/25 06:27:10;;;;;;;8.13;2.80;;;13.50;99.90;;;;;;5030850;28;20104;-64
2022/10/25 06:29:35;;;;;;;5.50;2.42;;;13.50;99.90;;;;;;5032363;28;20420;-64
2022/10/25 06:32:01;;;;;;;7.80;2.38;;;13.50;99.90;;;;;;5031323;28;20026;-64
2022/10/25 06:34:26;;;;;;;6.93;2.50;;;13.50;99.90;;;;;;5031213;28;20029;-64
2022/10/25 06:36:52;;;;;;;10.13;2.80;;;13.50;99.90;;;;;;5031013;28;20026;-63
2022/10/25 06:39:17;;;;;;;6.15;2.75;;;13.50;99.90;;;;;;5031153;28;20528;-64
2022/10/25 06:41:43;;;;;;;8.57;2.85;;;13.50;99.90;;;;;;5031728;28;20075;-64
2022/10/25 06:44:08;;;;;;;11.32;4.05;;;13.50;99.90;;;;;;5020310;28;20045;-63
2022/10/25 06:46:41;;;;;;;10.75;3.35;;;13.40;99.90;;;;;;5029497;28;20025;-64
2022/10/25 06:49:06;;;;;;;7.00;3.60;;;13.50;99.90;;;;;;5024891;28;20078;-64
2022/10/25 06:51:33;;;;;;;9.95;3.95;;;13.50;99.90;;;;;;5025159;28;20025;-64
2022/10/25 06:54:00;;;;;;;8.35;3.38;;;13.40;99.90;;;;;;5018610;28;20493;-64
2022/10/25 06:56:27;;;;;;;12.25;3.83;;;13.40;99.90;;;;;;5025325;28;20030;-63
2022/10/25 06:58:53;;;;;;;10.65;4.47;;;13.40;99.90;;;;;;5025429;28;20038;-64
2022/10/25 07:01:21;;;;;;;7.72;4.00;;;13.40;99.90;;;;;;5012494;28;20117;-64
2022/10/25 07:03:49;;;;;;;8.13;4.53;;;13.40;99.90;;;;;;5024898;28;20034;-63
2022/10/25 07:06:19;;;;;;;12.43;4.40;;;13.40;99.90;;;;;;5029042;28;20702;-64
2022/10/25 07:08:46;;;;;;;9.20;4.57;;;13.50;99.90;;;;;;5027212;28;20478;-64
2022/10/25 07:11:14;;;;;;;8.57;4.78;;;13.50;99.90;;;;;;5025650;28;20021;-63
2022/10/25 07:13:39;;;;;;;10.32;4.90;;;13.50;99.90;;;;;;5031906;28;20053;-63
2022/10/25 07:16:08;;;;;;;7.57;4.93;;;13.50;99.90;;;;;;5028332;28;20049;-64
2022/10/25 07:18:35;;;;;;;8.13;4.00;;;13.50;99.90;;;;;;5031969;28;20033;-63
2022/10/25 07:21:03;;;;;;;7.07;4.40;;;13.60;99.90;;;;;;5032037;28;20497;-63
2022/10/25 07:23:30;;;;;;;7.47;4.70;;;13.60;99.90;;;;;;5026882;28;20029;-64
2022/10/25 07:25:56;;;;;;;8.23;4.55;;;13.60;99.90;;;;;;5032087;28;20025;-64
2022/10/25 07:28:21;;;;;;;11.68;5.15;;;13.60;99.90;;;;;;5030815;28;20053;-64
2022/10/25 07:30:47;;;;;;;11.85;4.75;;;13.60;99.90;;;;;;5030647;28;20052;-63
2022/10/25 07:33:15;;;;;;;7.93;4.47;;;13.60;99.90;;;;;;5030677;28;20021;-64
2022/10/25 07:35:44;;;;;;;11.98;4.70;;;13.70;99.90;;;;;;5030124;28;20017;-63
2022/10/25 07:38:10;;;;;;;10.82;4.93;;;13.70;99.90;;;;;;5031358;28;20048;-63
2022/10/25 07:40:35;;;;;;;8.07;4.05;;;13.80;99.90;;;;;;5032302;28;20485;-63
2022/10/25 07:43:01;;;;;;;7.88;4.15;;;13.80;99.90;;;;;;5031880;28;20107;-63
2022/10/25 07:45:26;;;;;;;6.95;4.20;;;13.90;99.90;;;;;;5024835;28;20065;-63
2022/10/25 07:47:52;;;;;;;12.07;5.50;;;13.90;99.90;;;;;;5030180;28;20022;-63
2022/10/25 07:50:20;;;;;;;11.85;5.93;;;14.00;99.90;;;;;;5021117;28;20033;-63
2022/10/25 07:52:46;;;;;;;10.23;5.25;;;14.00;99.90;;;;;;5043748;28;20383;-64
2022/10/25 07:55:12;;;;;;;9.38;6.03;;;14.10;99.90;;;;;;5029657;28;20037;-63
2022/10/25 07:57:38;;;;;;;9.68;6.22;;;14.10;99.90;;;;;;5029772;28;20026;-63
2022/10/25 08:00:06;;;;;;;11.98;6.40;;;14.20;99.90;;;;;;5032071;28;20068;-63
2022/10/25 08:02:31;;;;;;;8.80;5.55;;;14.10;99.90;;;;;;5033894;28;20033;-64
2022/10/25 08:04:57;;;;;;;11.02;6.90;;;14.20;99.90;;;;;;5035283;28;20389;-64
2022/10/25 08:07:22;;;;;;;10.02;6.60;;;14.20;99.90;;;;;;5032897;28;20025;-64
2022/10/25 08:09:48;;;;;;;13.55;7.35;;;14.20;99.90;;;;;;5035379;28;20060;-64
2022/10/25 08:12:13;;;;;;;9.40;6.18;;;14.20;99.90;;;;;;5033015;28;20465;-63
2022/10/25 08:14:39;;;;;;;9.65;6.82;;;14.30;99.90;;;;;;5034094;28;20029;-64
2022/10/25 08:17:04;;;;;;;11.82;7.25;;;14.40;99.90;;;;;;5034825;28;20036;-64
2022/10/25 08:19:30;;;;;;;13.95;8.55;;;14.40;99.90;;;;;;5035038;28;20033;-64
2022/10/25 08:21:55;;;;;;;17.15;10.02;;;14.50;99.90;;;;;;5020461;28;20025;-64
2022/10/25 08:24:21;;;;;;;13.25;9.38;;;14.50;99.90;;;;;;5034043;28;20079;-64
2022/10/25 08:26:46;;;;;;;13.68;10.05;;;14.50;99.90;;;;;;5033506;28;20363;-64
2022/10/25 08:29:13;;;;;;;11.68;9.30;;;14.60;99.90;;;;;;5034698;28;20029;-64
2022/10/25 08:31:38;;;;;;;14.40;10.30;;;14.60;99.90;;;;;;5034911;28;20021;-64
2022/10/25 08:34:04;;;;;;;12.82;10.70;;;14.70;99.90;;;;;;5034868;28;20068;-64
2022/10/25 08:36:29;;;;;;;13.52;11.50;;;14.70;99.90;;;;;;5034651;28;20022;-64
2022/10/25 08:38:55;;;;;;;15.82;11.18;;;14.70;99.90;;;;;;5034026;28;20021;-64
2022/10/25 08:41:42;;;;;;;13.25;11.27;;;14.80;99.90;;;;;;5032869;28;20029;-64
2022/10/25 08:44:49;;;;;;;14.73;11.40;;;14.80;99.90;;;;;;5032626;28;20520;-64
2022/10/25 08:47:20;;;;;;;11.80;10.27;;;14.80;99.90;;;;;;5019118;28;20083;-64
2022/10/25 08:50:04;;;;;;;15.45;11.43;;;14.90;99.90;;;;;;5032909;28;20025;-64
2022/10/25 08:52:40;;;;;;;17.45;11.57;;;14.90;99.90;;;;;;5030598;28;20013;-64
2022/10/25 08:55:20;;;;;;;15.93;13.05;;;15.00;99.90;;;;;;5032895;28;20013;-64
2022/10/25 08:57:48;;;;;;;;;;;15.20;99.90;;;;;;5031899;28;20382;-64
2022/10/25 09:00:23;;;;;;;12.98;11.57;;;15.20;99.90;;;;;;5031988;28;19905;-64
2022/10/25 09:02:55;;;;;;;14.20;10.90;;;15.30;99.90;;;;;;5034050;28;20100;-64
2022/10/25 09:05:55;;;;;;;10.40;8.85;;;15.50;99.90;;;;;;5022251;28;20030;-64
2022/10/25 09:08:23;;;;;;;;;;;15.60;99.90;;;;;;5028365;28;20033;-64
2022/10/25 09:11:09;;;;;;;14.02;10.15;;;15.60;99.90;;;;;;5028173;28;19944;-64
2022/10/25 09:13:53;;;;;;;13.23;9.95;;;15.80;99.90;;;;;;5028642;28;20068;-64
2022/10/25 09:16:36;;;;;;;15.32;10.52;;;15.80;99.90;;;;;;5022667;28;20073;-64
2022/10/25 09:19:06;;;;;;;15.35;10.40;;;15.80;99.90;;;;;;5021546;28;20026;-64
2022/10/25 09:21:58;;;;;;;14.32;10.10;;;15.70;99.90;;;;;;5022867;28;20544;-64
2022/10/25 09:24:37;;;;;;;16.30;10.35;;;15.70;99.90;;;;;;5028850;28;20042;-64
2022/10/25 09:27:25;;;;;;;12.30;9.80;;;15.70;99.90;;;;;;5028087;28;20124;-64
2022/10/25 09:30:00;;;;;;;14.35;10.80;;;15.60;99.90;;;;;;5029490;28;20067;-64
2022/10/25 09:32:38;;;;;;;14.52;9.95;;;15.60;99.90;;;;;;5023552;28;20022;-64
2022/10/25 09:35:10;;;;;;;13.18;9.38;;;15.60;99.90;;;;;;5026917;28;20485;-64
2022/10/25 09:37:46;;;;;;;13.35;9.77;;;15.70;99.90;;;;;;5028745;28;20022;-64
2022/10/25 09:40:18;;;;;;;14.60;9.82;;;15.80;99.90;;;;;;5014332;28;20026;-64
2022/10/25 09:42:56;;;;;;;12.93;9.18;;;15.90;99.90;;;;;;5013806;28;20053;-64
2022/10/25 09:45:24;;;;;;;10.63;8.93;;;16.20;99.90;;;;;;5021929;28;20049;-64
2022/10/25 09:48:16;;;;;;;11.20;8.65;;;16.40;99.90;;;;;;5020212;28;20033;-64
2022/10/25 09:50:56;;;;;;;12.55;8.88;;;16.70;99.90;;;;;;5021170;28;20041;-64
2022/10/25 09:53:21;;;;;;;17.80;9.68;;;16.90;99.90;;;;;;5021454;28;20045;-64
2022/10/25 09:55:58;;;;;;;12.65;8.52;;;16.80;99.90;;;;;;5032940;28;20076;-64
2022/10/25 09:58:29;;;;;;;11.57;8.27;;;16.60;99.90;;;;;;5033354;28;20543;-64
2022/10/25 10:00:59;;;;;;;12.20;7.63;;;16.40;99.90;;;;;;5016855;28;20021;-64
2022/10/25 10:03:34;;;;;;;11.30;8.57;;;16.40;99.90;;;;;;5024585;28;20025;-64
2022/10/25 10:06:17;;;;;;;9.93;8.75;;;16.40;99.90;;;;;;5031485;28;20029;-64
2022/10/25 10:08:50;;;;;;;10.45;8.40;;;16.50;99.90;;;;;;5044723;28;20481;-64
2022/10/25 10:11:18;;;;;;;12.07;7.97;;;16.50;99.90;;;;;;5030748;28;20079;-64
2022/10/25 10:13:54;;;;;;;9.10;7.70;;;16.60;99.90;;;;;;5032168;28;20048;-64
2022/10/25 10:16:25;;;;;;;8.73;7.82;;;16.70;99.90;;;;;;5023966;28;20018;-64
2022/10/25 10:18:51;;;;;;;8.98;6.97;;;16.90;99.90;;;;;;5018124;28;20065;-64
2022/10/25 10:21:19;;;;;;;11.32;7.35;;;17.00;99.90;;;;;;5031709;28;20057;-64
2022/10/25 10:23:50;;;;;;;10.52;7.00;;;17.20;99.90;;;;;;5027673;28;20030;-64
2022/10/25 10:26:25;;;;;;;9.65;6.85;;;17.20;99.90;;;;;;5026542;28;20082;-64
2022/10/25 10:29:02;;;;;;;10.40;6.90;;;17.60;99.90;;;;;;5032882;28;20021;-64
2022/10/25 10:31:40;;;;;;;9.93;6.43;;;17.80;99.90;;;;;;5028637;28;20113;-64
2022/10/25 10:34:22;;;;;;;8.35;5.78;;;18.20;99.40;;;;;;5013473;28;20060;-64
2022/10/25 10:37:02;;;;;;;8.60;5.63;;;18.40;99.00;;;;;;5017217;28;20052;-64
2022/10/25 10:39:28;;;;;;;10.32;6.65;;;18.60;98.70;;;;;;5047624;28;20033;-64
2022/10/25 10:42:02;;;;;;;8.13;6.18;;;18.60;98.10;;;;;;5032341;28;20524;-64
2022/10/25 10:44:29;;;;;;;7.68;5.78;;;18.50;97.80;;;;;;5030620;28;20156;-64
2022/10/25 10:46:55;;;;;;;8.10;5.45;;;18.30;97.90;;;;;;5014404;28;20018;-64
2022/10/25 10:49:32;;;;;;;9.05;5.85;;;18.50;97.80;;;;;;5015825;28;20025;-64
2022/10/25 10:51:57;;;;;;;12.32;6.07;;;18.90;96.80;;;;;;5022480;28;20032;-64
2022/10/25 10:54:26;;;;;;;9.13;5.00;;;19.20;96.20;;;;;;5019464;28;20021;-64
2022/10/25 10:57:00;;;;;;;8.35;4.53;;;19.60;95.30;;;;;;5023950;28;20030;-64
2022/10/25 10:59:34;;;;;;;6.47;4.15;;;19.90;94.50;;;;;;5018809;28;20381;-64
2022/10/25 11:02:23;;;;;;;8.95;5.03;;;20.40;94.20;;;;;;5032536;28;20025;-65
2022/10/25 11:04:50;;;;;;;;;;;20.50;91.90;;;;;;5019459;28;20052;-65
2022/10/25 11:07:29;;;;;;;5.50;3.63;;;20.60;92.30;;;;;;5031097;28;19917;-64
2022/10/25 11:10:21;;;;;;;5.18;2.85;;;21.20;92.00;;;;;;5034405;28;20037;-64
2022/10/25 11:13:07;;;;;;;7.22;3.58;;;22.20;90.00;;;;;;5029572;28;20033;-65
2022/10/25 11:15:57;;;;;;;4.43;2.28;;;22.90;86.40;;;;;;5028372;28;20054;-64
2022/10/25 11:18:52;;;;;;;3.95;2.33;;;24.40;82.50;;;;;;5044073;28;20028;-64
2022/10/25 11:21:34;;;;;;;6.40;2.63;;;25.40;75.60;;;;;;5024662;28;20045;-65
2022/10/25 11:24:23;;;;;;;4.82;2.45;;;24.10;73.10;;;;;;5026904;28;20088;-64
2022/10/25 11:27:15;;;;;;;5.38;2.33;;;23.20;76.30;;;;;;5029305;28;20022;-65
2022/10/25 11:29:51;;;;;;;5.75;1.95;;;24.00;77.20;;;;;;5030982;28;20040;-64
2022/10/25 11:32:32;;;;;;;3.88;1.92;;;24.70;71.60;;;;;;5030689;28;20017;-65
2022/10/25 11:35:09;;;;;;;4.85;2.38;;;25.50;70.10;;;;;;5032445;28;20072;-65
2022/10/25 11:37:55;;;;;;;5.55;1.90;;;25.30;67.30;;;;;;5035622;28;20022;-65
2022/10/25 11:40:35;;;;;;;4.15;1.77;;;24.30;69.30;;;;;;5027043;28;20033;-65
2022/10/25 11:43:33;;;;;;;2.72;1.60;;;25.40;69.80;;;;;;5035401;28;20564;-65
2022/10/25 11:46:04;;;;;;;4.00;2.30;;;25.90;63.80;;;;;;5006217;28;20124;-65
2022/10/25 11:48:41;;;;;;;6.88;1.92;;;24.60;64.10;;;;;;5028361;28;20025;-64
2022/10/25 11:51:25;;;;;;;2.83;1.67;;;23.20;68.10;;;;;;5031770;28;20092;-65
2022/10/25 11:54:16;;;;;;;5.00;1.85;;;22.50;70.90;;;;;;5035618;28;20032;-65
2022/10/25 11:57:00;;;;;;;3.58;1.60;;;21.90;73.10;;;;;;5028480;28;20029;-65
2022/10/25 11:59:37;;;;;;;3.97;1.60;;;22.10;74.60;;;;;;5040003;28;20020;-65
2022/10/25 12:02:33;;;;;;;4.95;1.40;;;23.10;73.50;;;;;;5026404;28;20552;-65
2022/10/25 12:05:11;;;;;;;5.05;1.90;;;23.10;71.40;;;;;;5035319;28;20033;-64
2022/10/25 12:07:46;;;;;;;6.82;2.70;;;22.70;72.20;;;;;;5024587;28;20034;-65
2022/10/25 12:10:36;;;;;;;5.38;1.83;;;22.80;73.60;;;;;;5032359;28;20113;-64
2022/10/25 12:13:17;;;;;;;4.40;1.40;;;23.40;71.70;;;;;;5034706;28;20026;-65
2022/10/25 12:15:46;;;;;;;5.20;2.05;;;23.20;72.00;;;;;;5024834;28;20033;-65
2022/10/25 12:18:18;;;;;;;4.47;1.33;;;22.90;72.90;;;;;;5028671;28;20147;-65
2022/10/25 12:20:46;;;;;;;3.55;1.70;;;22.70;73.70;;;;;;5029234;28;20032;-64
2022/10/25 12:23:19;;;;;;;4.88;1.67;;;22.20;74.00;;;;;;5028266;28;20075;-64
2022/10/25 12:25:49;;;;;;;5.35;2.08;;;22.70;75.20;;;;;;5027792;28;20030;-65
2022/10/25 12:28:36;;;;;;;4.97;1.50;;;24.00;71.40;;;;;;5031789;28;20679;-65
2022/10/25 12:31:11;;;;;;;6.15;2.22;;;23.80;70.00;;;;;;5033754;28;20067;-65
2022/10/25 12:33:51;;;;;;;4.72;2.53;;;23.40;70.60;;;;;;5035197;28;20017;-65
2022/10/25 12:36:39;;;;;;;3.47;1.80;;;24.40;69.30;;;;;;5039729;28;20026;-65
2022/10/25 12:39:23;;;;;;;3.58;1.80;;;25.30;66.50;;;;;;5028694;28;20032;-65
2022/10/25 12:41:52;;;;;;;7.72;1.92;;;25.20;64.70;;;;;;5032935;28;20025;-65
2022/10/25 12:44:27;;;;;;;4.88;1.92;;;25.40;65.00;;;;;;5034212;28;20037;-64
2022/10/25 12:47:18;;;;;;;5.50;2.28;;;26.50;63.40;;;;;;5046569;28;20034;-65
2022/10/25 12:50:04;;;;;;;3.83;1.63;;;27.00;61.50;;;;;;5036234;28;20071;-65
2022/10/25 12:52:54;;;;;;;4.78;1.58;;;28.10;59.20;;;;;;5043518;28;20026;-65
2022/10/25 12:55:41;;;;;;;3.38;1.52;;;28.70;57.70;;;;;;5035756;28;20014;-65
2022/10/25 12:58:30;;;;;;;3.90;1.38;;;29.60;55.50;;;;;;5025151;28;20049;-65
2022/10/25 13:01:05;;;;;;;3.88;1.10;;;29.80;54.20;;;;;;5034665;28;20033;-65
2022/10/25 13:04:08;;;;;;;5.57;1.40;;;29.60;53.30;;;;;;5033103;28;20026;-65